sensor_id;sensor_type;location;lat;lon;timestamp;temperature;humidity
23755;DHT22;12057;52.042;6.830;2023-04-24T00:03:28;10.70;99.90
23755;DHT22;12057;52.042;6.830;2023-04-24T00:08:29;10.60;99.90
23755;DHT22;12057;52.042;6.830;2023-04-24T00:13:30;10.60;99.90
23755;DHT22;12057;52.042;6.830;2023-04-24T00:18:31;10.60;99.90
23755;DHT22;12057;52.042;6.830;2023-04-24T00:23:35;10.60;99.90
23755;DHT22;12057;52.042;6.830;2023-04-24T00:28:36;10.60;99.90
23755;DHT22;12057;52.042;6.830;2023-04-24T00:33:36;10.60;99.90
23755;DHT22;12057;52.042;6.830;2023-04-24T00:38:37;10.60;99.90
23755;DHT22;12057;52.042;6.830;2023-04-24T00:43:38;10.60;99.90
23755;DHT22;12057;52.042;6.830;2023-04-24T00:48:39;10.60;99.90
23755;DHT22;12057;52.042;6.830;2023-04-24T00:53:40;10.60;99.90
23755;DHT22;12057;52.042;6.830;2023-04-24T00:58:44;10.60;99.90
23755;DHT22;12057;52.042;6.830;2023-04-24T01:03:45;10.60;99.90
23755;DHT22;12057;52.042;6.830;2023-04-24T01:08:46;10.60;99.90
23755;DHT22;12057;52.042;6.830;2023-04-24T01:13:47;10.60;99.90
23755;DHT22;12057;52.042;6.830;2023-04-24T01:18:48;10.60;99.90
23755;DHT22;12057;52.042;6.830;2023-04-24T01:23:49;10.60;99.90
23755;DHT22;12057;52.042;6.830;2023-04-24T01:28:51;10.60;99.90
23755;DHT22;12057;52.042;6.830;2023-04-24T01:33:52;10.60;99.90
23755;DHT22;12057;52.042;6.830;2023-04-24T01:38:54;10.60;99.90
23755;DHT22;12057;52.042;6.830;2023-04-24T01:43:55;10.60;99.90
23755;DHT22;12057;52.042;6.830;2023-04-24T01:48:59;10.60;99.90
23755;DHT22;12057;52.042;6.830;2023-04-24T01:54:00;10.60;99.90
23755;DHT22;12057;52.042;6.830;2023-04-24T01:59:03;10.70;99.90
23755;DHT22;12057;52.042;6.830;2023-04-24T02:04:05;10.70;99.90
23755;DHT22;12057;52.042;6.830;2023-04-24T02:09:06;10.60;99.90
23755;DHT22;12057;52.042;6.830;2023-04-24T02:14:06;10.60;99.90
23755;DHT22;12057;52.042;6.830;2023-04-24T02:19:07;10.60;99.90
23755;DHT22;12057;52.042;6.830;2023-04-24T02:24:08;10.50;99.90
23755;DHT22;12057;52.042;6.830;2023-04-24T02:29:09;10.50;99.90
23755;DHT22;12057;52.042;6.830;2023-04-24T02:34:09;10.40;99.90
23755;DHT22;12057;52.042;6.830;2023-04-24T02:39:10;10.40;99.90
23755;DHT22;12057;52.042;6.830;2023-04-24T02:44:11;10.30;99.90
23755;DHT22;12057;52.042;6.830;2023-04-24T02:49:12;10.20;99.90
23755;DHT22;12057;52.042;6.830;2023-04-24T02:54:13;10.20;99.90
23755;DHT22;12057;52.042;6.830;2023-04-24T02:59:14;10.20;99.90
23755;DHT22;12057;52.042;6.830;2023-04-24T03:04:14;10.20;99.90
23755;DHT22;12057;52.042;6.830;2023-04-24T03:09:16;10.20;99.90
23755;DHT22;12057;52.042;6.830;2023-04-24T03:14:16;10.20;99.90
23755;DHT22;12057;52.042;6.830;2023-04-24T03:19:17;10.10;99.90
23755;DHT22;12057;52.042;6.830;2023-04-24T03:24:18;10.00;99.90
23755;DHT22;12057;52.042;6.830;2023-04-24T03:29:19;10.00;99.90
23755;DHT22;12057;52.042;6.830;2023-04-24T03:34:20;10.00;99.90
23755;DHT22;12057;52.042;6.830;2023-04-24T03:39:20;9.90;99.90
23755;DHT22;12057;52.042;6.830;2023-04-24T03:44:21;9.90;99.90
23755;DHT22;12057;52.042;6.830;2023-04-24T03:49:22;9.90;99.90
23755;DHT22;12057;52.042;6.830;2023-04-24T03:54:23;9.90;99.90
23755;DHT22;12057;52.042;6.830;2023-04-24T03:59:23;10.00;99.90
23755;DHT22;12057;52.042;6.830;2023-04-24T04:04:24;9.90;99.90
23755;DHT22;12057;52.042;6.830;2023-04-24T04:09:25;9.90;99.90
23755;DHT22;12057;52.042;6.830;2023-04-24T04:14:27;9.90;99.90
23755;DHT22;12057;52.042;6.830;2023-04-24T04:19:27;9.90;99.90
23755;DHT22;12057;52.042;6.830;2023-04-24T04:24:28;9.90;99.90
23755;DHT22;12057;52.042;6.830;2023-04-24T04:29:29;9.90;99.90
23755;DHT22;12057;52.042;6.830;2023-04-24T04:34:31;9.80;99.90
23755;DHT22;12057;52.042;6.830;2023-04-24T04:39:33;9.90;99.90
23755;DHT22;12057;52.042;6.830;2023-04-24T04:44:34;9.90;99.90
23755;DHT22;12057;52.042;6.830;2023-04-24T04:49:40;9.90;99.90
23755;DHT22;12057;52.042;6.830;2023-04-24T04:54:41;9.90;99.90
23755;DHT22;12057;52.042;6.830;2023-04-24T04:59:42;10.00;99.90
23755;DHT22;12057;52.042;6.830;2023-04-24T05:04:43;10.00;99.90
23755;DHT22;12057;52.042;6.830;2023-04-24T05:09:43;10.00;99.90
23755;DHT22;12057;52.042;6.830;2023-04-24T05:14:45;9.90;99.90
23755;DHT22;12057;52.042;6.830;2023-04-24T05:19:46;9.90;99.90
23755;DHT22;12057;52.042;6.830;2023-04-24T05:24:47;9.80;99.90
23755;DHT22;12057;52.042;6.830;2023-04-24T05:29:48;9.80;99.90
23755;DHT22;12057;52.042;6.830;2023-04-24T05:34:49;9.80;99.90
23755;DHT22;12057;52.042;6.830;2023-04-24T05:39:49;9.80;99.90
23755;DHT22;12057;52.042;6.830;2023-04-24T05:44:50;9.80;99.90
23755;DHT22;12057;52.042;6.830;2023-04-24T05:49:51;9.80;99.90
23755;DHT22;12057;52.042;6.830;2023-04-24T05:54:52;9.80;99.90
23755;DHT22;12057;52.042;6.830;2023-04-24T05:59:52;9.80;99.90
23755;DHT22;12057;52.042;6.830;2023-04-24T06:04:53;9.70;99.90
23755;DHT22;12057;52.042;6.830;2023-04-24T06:09:54;9.80;99.90
23755;DHT22;12057;52.042;6.830;2023-04-24T06:14:55;9.80;99.90
23755;DHT22;12057;52.042;6.830;2023-04-24T06:19:58;9.80;99.90
23755;DHT22;12057;52.042;6.830;2023-04-24T06:25:00;9.90;99.90
23755;DHT22;12057;52.042;6.830;2023-04-24T06:30:01;10.00;99.90
23755;DHT22;12057;52.042;6.830;2023-04-24T06:35:02;10.00;99.90
23755;DHT22;12057;52.042;6.830;2023-04-24T06:40:03;10.00;99.90
23755;DHT22;12057;52.042;6.830;2023-04-24T06:45:04;9.90;99.90
23755;DHT22;12057;52.042;6.830;2023-04-24T06:50:06;9.90;99.90
23755;DHT22;12057;52.042;6.830;2023-04-24T06:55:07;9.90;99.90
23755;DHT22;12057;52.042;6.830;2023-04-24T07:00:12;10.00;99.90
23755;DHT22;12057;52.042;6.830;2023-04-24T07:05:13;10.10;99.90
23755;DHT22;12057;52.042;6.830;2023-04-24T07:10:15;10.10;99.90
23755;DHT22;12057;52.042;6.830;2023-04-24T07:15:16;10.20;99.90
23755;DHT22;12057;52.042;6.830;2023-04-24T07:20:17;10.40;99.90
23755;DHT22;12057;52.042;6.830;2023-04-24T07:25:18;10.60;99.90
23755;DHT22;12057;52.042;6.830;2023-04-24T07:30:18;10.70;99.90
23755;DHT22;12057;52.042;6.830;2023-04-24T07:35:19;10.50;99.90
23755;DHT22;12057;52.042;6.830;2023-04-24T07:40:20;10.40;99.90
23755;DHT22;12057;52.042;6.830;2023-04-24T07:45:24;10.30;99.90
23755;DHT22;12057;52.042;6.830;2023-04-24T07:50:26;10.30;99.90
23755;DHT22;12057;52.042;6.830;2023-04-24T07:55:27;10.30;99.90
23755;DHT22;12057;52.042;6.830;2023-04-24T08:00:28;10.20;99.90
23755;DHT22;12057;52.042;6.830;2023-04-24T08:05:29;10.10;99.90
23755;DHT22;12057;52.042;6.830;2023-04-24T08:10:30;10.10;99.90
23755;DHT22;12057;52.042;6.830;2023-04-24T08:15:31;10.00;99.90
23755;DHT22;12057;52.042;6.830;2023-04-24T08:20:31;10.10;99.90
23755;DHT22;12057;52.042;6.830;2023-04-24T08:25:32;10.10;99.90
23755;DHT22;12057;52.042;6.830;2023-04-24T08:30:33;10.10;99.90
23755;DHT22;12057;52.042;6.830;2023-04-24T08:35:34;10.10;99.90
23755;DHT22;12057;52.042;6.830;2023-04-24T08:40:35;10.00;99.90
23755;DHT22;12057;52.042;6.830;2023-04-24T08:45:37;10.00;99.90
23755;DHT22;12057;52.042;6.830;2023-04-24T08:50:39;10.00;99.90
23755;DHT22;12057;52.042;6.830;2023-04-24T08:55:44;10.10;99.90
23755;DHT22;12057;52.042;6.830;2023-04-24T09:00:47;10.10;99.90
23755;DHT22;12057;52.042;6.830;2023-04-24T09:05:48;10.10;99.90
23755;DHT22;12057;52.042;6.830;2023-04-24T09:10:50;10.20;99.90
23755;DHT22;12057;52.042;6.830;2023-04-24T09:15:51;10.10;99.90
23755;DHT22;12057;52.042;6.830;2023-04-24T09:21:07;10.00;99.90
23755;DHT22;12057;52.042;6.830;2023-04-24T09:26:09;9.80;99.90
23755;DHT22;12057;52.042;6.830;2023-04-24T09:31:17;9.80;99.90
23755;DHT22;12057;52.042;6.830;2023-04-24T09:36:18;9.70;99.90
23755;DHT22;12057;52.042;6.830;2023-04-24T09:41:19;9.50;99.90
23755;DHT22;12057;52.042;6.830;2023-04-24T09:46:30;9.60;99.90
23755;DHT22;12057;52.042;6.830;2023-04-24T09:51:36;9.60;99.90
23755;DHT22;12057;52.042;6.830;2023-04-24T09:56:42;9.50;99.90
23755;DHT22;12057;52.042;6.830;2023-04-24T10:01:45;9.50;99.90
23755;DHT22;12057;52.042;6.830;2023-04-24T10:06:47;9.60;99.90
23755;DHT22;12057;52.042;6.830;2023-04-24T10:11:52;9.60;99.90
23755;DHT22;12057;52.042;6.830;2023-04-24T10:16:54;9.40;99.90
23755;DHT22;12057;52.042;6.830;2023-04-24T10:21:57;9.50;99.90
23755;DHT22;12057;52.042;6.830;2023-04-24T10:26:58;9.40;99.90
23755;DHT22;12057;52.042;6.830;2023-04-24T10:31:59;9.50;99.90
23755;DHT22;12057;52.042;6.830;2023-04-24T10:37:00;9.60;99.90
23755;DHT22;12057;52.042;6.830;2023-04-24T10:42:13;9.60;99.90
23755;DHT22;12057;52.042;6.830;2023-04-24T10:47:15;9.70;99.90
23755;DHT22;12057;52.042;6.830;2023-04-24T10:52:15;9.50;99.90
23755;DHT22;12057;52.042;6.830;2023-04-24T11:02:36;9.30;99.90
23755;DHT22;12057;52.042;6.830;2023-04-24T11:08:15;9.20;99.90
23755;DHT22;12057;52.042;6.830;2023-04-24T11:13:17;9.20;99.90
23755;DHT22;12057;52.042;6.830;2023-04-24T11:18:22;9.30;99.90
23755;DHT22;12057;52.042;6.830;2023-04-24T11:23:23;9.50;99.90
23755;DHT22;12057;52.042;6.830;2023-04-24T11:28:24;9.50;99.90
23755;DHT22;12057;52.042;6.830;2023-04-24T11:33:25;9.40;99.90
23755;DHT22;12057;52.042;6.830;2023-04-24T11:38:26;9.20;99.90
23755;DHT22;12057;52.042;6.830;2023-04-24T11:43:28;9.40;99.90
23755;DHT22;12057;52.042;6.830;2023-04-24T11:48:34;9.70;99.90
23755;DHT22;12057;52.042;6.830;2023-04-24T11:53:36;10.10;99.90
23755;DHT22;12057;52.042;6.830;2023-04-24T11:58:40;10.50;99.90
23755;DHT22;12057;52.042;6.830;2023-04-24T12:03:43;10.60;99.90
23755;DHT22;12057;52.042;6.830;2023-04-24T12:08:47;10.60;99.90
23755;DHT22;12057;52.042;6.830;2023-04-24T12:13:48;10.30;99.90
23755;DHT22;12057;52.042;6.830;2023-04-24T12:18:51;10.40;99.90
23755;DHT22;12057;52.042;6.830;2023-04-24T12:23:54;10.50;99.90
23755;DHT22;12057;52.042;6.830;2023-04-24T12:28:55;10.50;99.90
23755;DHT22;12057;52.042;6.830;2023-04-24T12:33:56;10.60;99.90
23755;DHT22;12057;52.042;6.830;2023-04-24T12:38:57;10.60;99.90
23755;DHT22;12057;52.042;6.830;2023-04-24T12:43:57;10.40;99.90
23755;DHT22;12057;52.042;6.830;2023-04-24T12:48:58;10.30;99.90
23755;DHT22;12057;52.042;6.830;2023-04-24T12:53:59;10.00;99.90
23755;DHT22;12057;52.042;6.830;2023-04-24T12:59:00;10.00;99.90
23755;DHT22;12057;52.042;6.830;2023-04-24T13:04:00;9.80;99.90
23755;DHT22;12057;52.042;6.830;2023-04-24T13:09:01;9.80;99.90
23755;DHT22;12057;52.042;6.830;2023-04-24T13:14:02;10.10;99.90
23755;DHT22;12057;52.042;6.830;2023-04-24T13:19:03;10.40;99.90
23755;DHT22;12057;52.042;6.830;2023-04-24T13:24:03;10.40;99.90
23755;DHT22;12057;52.042;6.830;2023-04-24T13:29:05;10.20;99.90
23755;DHT22;12057;52.042;6.830;2023-04-24T13:34:06;10.30;99.90
23755;DHT22;12057;52.042;6.830;2023-04-24T13:39:07;10.50;99.90
23755;DHT22;12057;52.042;6.830;2023-04-24T13:44:08;10.50;99.90
23755;DHT22;12057;52.042;6.830;2023-04-24T13:49:09;10.30;99.90
23755;DHT22;12057;52.042;6.830;2023-04-24T13:54:10;10.10;99.90
23755;DHT22;12057;52.042;6.830;2023-04-24T13:59:12;10.40;99.90
23755;DHT22;12057;52.042;6.830;2023-04-24T14:04:13;10.50;99.90
23755;DHT22;12057;52.042;6.830;2023-04-24T14:09:14;10.50;99.90
23755;DHT22;12057;52.042;6.830;2023-04-24T14:14:15;10.30;99.90
23755;DHT22;12057;52.042;6.830;2023-04-24T14:19:16;10.30;99.90
23755;DHT22;12057;52.042;6.830;2023-04-24T14:24:17;10.30;99.90
23755;DHT22;12057;52.042;6.830;2023-04-24T14:29:18;10.30;99.90
23755;DHT22;12057;52.042;6.830;2023-04-24T14:34:19;10.20;99.90
23755;DHT22;12057;52.042;6.830;2023-04-24T14:39:20;10.30;99.90
23755;DHT22;12057;52.042;6.830;2023-04-24T14:44:21;10.40;99.90
23755;DHT22;12057;52.042;6.830;2023-04-24T14:49:23;10.40;99.90
23755;DHT22;12057;52.042;6.830;2023-04-24T14:54:24;10.30;99.90
23755;DHT22;12057;52.042;6.830;2023-04-24T14:59:25;10.10;99.90
23755;DHT22;12057;52.042;6.830;2023-04-24T15:04:26;10.00;99.90
23755;DHT22;12057;52.042;6.830;2023-04-24T15:09:27;10.00;99.90
23755;DHT22;12057;52.042;6.830;2023-04-24T15:14:28;10.10;99.90
23755;DHT22;12057;52.042;6.830;2023-04-24T15:19:30;10.50;99.90
23755;DHT22;12057;52.042;6.830;2023-04-24T15:24:31;10.60;99.90
23755;DHT22;12057;52.042;6.830;2023-04-24T15:29:32;10.60;99.90
23755;DHT22;12057;52.042;6.830;2023-04-24T15:34:33;10.50;99.90
23755;DHT22;12057;52.042;6.830;2023-04-24T15:39:34;10.60;99.90
23755;DHT22;12057;52.042;6.830;2023-04-24T15:44:35;10.60;99.90
23755;DHT22;12057;52.042;6.830;2023-04-24T15:49:36;10.80;99.90
23755;DHT22;12057;52.042;6.830;2023-04-24T15:54:37;10.80;99.90
23755;DHT22;12057;52.042;6.830;2023-04-24T15:59:38;10.70;99.90
23755;DHT22;12057;52.042;6.830;2023-04-24T16:04:39;10.70;99.90
23755;DHT22;12057;52.042;6.830;2023-04-24T16:09:41;10.40;99.90
23755;DHT22;12057;52.042;6.830;2023-04-24T16:14:41;10.40;99.90
23755;DHT22;12057;52.042;6.830;2023-04-24T16:19:42;10.50;99.90
23755;DHT22;12057;52.042;6.830;2023-04-24T16:24:43;10.40;99.90
23755;DHT22;12057;52.042;6.830;2023-04-24T16:29:46;10.40;99.90
23755;DHT22;12057;52.042;6.830;2023-04-24T16:34:47;10.30;99.90
23755;DHT22;12057;52.042;6.830;2023-04-24T16:39:47;10.20;99.90
23755;DHT22;12057;52.042;6.830;2023-04-24T16:44:48;10.20;99.90
23755;DHT22;12057;52.042;6.830;2023-04-24T16:49:49;10.30;99.90
23755;DHT22;12057;52.042;6.830;2023-04-24T16:54:50;10.30;99.90
23755;DHT22;12057;52.042;6.830;2023-04-24T16:59:51;10.10;99.90
23755;DHT22;12057;52.042;6.830;2023-04-24T17:04:51;10.00;99.90
23755;DHT22;12057;52.042;6.830;2023-04-24T17:09:52;9.90;99.90
23755;DHT22;12057;52.042;6.830;2023-04-24T17:14:54;9.90;99.90
23755;DHT22;12057;52.042;6.830;2023-04-24T17:19:55;9.80;99.90
23755;DHT22;12057;52.042;6.830;2023-04-24T17:24:55;9.90;99.90
23755;DHT22;12057;52.042;6.830;2023-04-24T17:29:57;9.80;99.90
23755;DHT22;12057;52.042;6.830;2023-04-24T17:34:58;9.80;99.90
23755;DHT22;12057;52.042;6.830;2023-04-24T17:39:59;9.60;99.90
23755;DHT22;12057;52.042;6.830;2023-04-24T17:45:00;9.40;99.90
23755;DHT22;12057;52.042;6.830;2023-04-24T17:50:01;9.30;99.90
23755;DHT22;12057;52.042;6.830;2023-04-24T17:55:02;9.20;99.90
23755;DHT22;12057;52.042;6.830;2023-04-24T18:00:03;9.30;99.90
23755;DHT22;12057;52.042;6.830;2023-04-24T18:05:04;9.30;99.90
23755;DHT22;12057;52.042;6.830;2023-04-24T18:10:05;9.30;99.90
23755;DHT22;12057;52.042;6.830;2023-04-24T18:15:07;9.20;99.90
23755;DHT22;12057;52.042;6.830;2023-04-24T18:20:08;9.10;99.90
23755;DHT22;12057;52.042;6.830;2023-04-24T18:25:11;9.10;99.90
23755;DHT22;12057;52.042;6.830;2023-04-24T18:30:12;8.90;99.90
23755;DHT22;12057;52.042;6.830;2023-04-24T18:35:13;8.90;99.90
23755;DHT22;12057;52.042;6.830;2023-04-24T18:40:14;8.80;99.90
23755;DHT22;12057;52.042;6.830;2023-04-24T18:45:15;8.60;99.90
23755;DHT22;12057;52.042;6.830;2023-04-24T18:50:16;8.60;99.90
23755;DHT22;12057;52.042;6.830;2023-04-24T18:55:18;8.50;99.90
23755;DHT22;12057;52.042;6.830;2023-04-24T19:00:19;8.40;99.90
23755;DHT22;12057;52.042;6.830;2023-04-24T19:05:20;8.30;99.90
23755;DHT22;12057;52.042;6.830;2023-04-24T19:10:21;8.30;99.90
23755;DHT22;12057;52.042;6.830;2023-04-24T19:15:23;8.30;99.90
23755;DHT22;12057;52.042;6.830;2023-04-24T19:20:26;8.40;99.90
23755;DHT22;12057;52.042;6.830;2023-04-24T19:25:28;8.40;99.90
23755;DHT22;12057;52.042;6.830;2023-04-24T19:30:29;8.50;99.90
23755;DHT22;12057;52.042;6.830;2023-04-24T19:35:30;8.40;99.90
23755;DHT22;12057;52.042;6.830;2023-04-24T19:40:31;8.40;99.90
23755;DHT22;12057;52.042;6.830;2023-04-24T19:45:32;8.30;99.90
23755;DHT22;12057;52.042;6.830;2023-04-24T19:50:33;8.20;99.90
23755;DHT22;12057;52.042;6.830;2023-04-24T19:55:34;8.10;99.90
23755;DHT22;12057;52.042;6.830;2023-04-24T20:00:35;8.10;99.90
23755;DHT22;12057;52.042;6.830;2023-04-24T20:05:35;8.10;99.90
23755;DHT22;12057;52.042;6.830;2023-04-24T20:10:36;8.00;99.90
23755;DHT22;12057;52.042;6.830;2023-04-24T20:15:37;8.00;99.90
23755;DHT22;12057;52.042;6.830;2023-04-24T20:20:38;8.10;99.90
23755;DHT22;12057;52.042;6.830;2023-04-24T20:25:41;8.10;99.90
23755;DHT22;12057;52.042;6.830;2023-04-24T20:30:41;8.00;99.90
23755;DHT22;12057;52.042;6.830;2023-04-24T20:35:42;8.10;99.90
23755;DHT22;12057;52.042;6.830;2023-04-24T20:40:43;8.20;99.90
23755;DHT22;12057;52.042;6.830;2023-04-24T20:45:47;8.20;99.90
23755;DHT22;12057;52.042;6.830;2023-04-24T20:50:47;8.10;99.90
23755;DHT22;12057;52.042;6.830;2023-04-24T20:55:49;8.10;99.90
23755;DHT22;12057;52.042;6.830;2023-04-24T21:00:50;8.00;99.90
23755;DHT22;12057;52.042;6.830;2023-04-24T21:05:51;8.00;99.90
23755;DHT22;12057;52.042;6.830;2023-04-24T21:10:52;7.90;99.90
23755;DHT22;12057;52.042;6.830;2023-04-24T21:15:53;8.00;99.90
23755;DHT22;12057;52.042;6.830;2023-04-24T21:20:53;8.00;99.90
23755;DHT22;12057;52.042;6.830;2023-04-24T21:25:56;8.00;99.90
23755;DHT22;12057;52.042;6.830;2023-04-24T21:30:57;8.00;99.90
23755;DHT22;12057;52.042;6.830;2023-04-24T21:35:57;8.00;99.90
23755;DHT22;12057;52.042;6.830;2023-04-24T21:40:58;8.00;99.90
23755;DHT22;12057;52.042;6.830;2023-04-24T21:45:59;7.90;99.90
23755;DHT22;12057;52.042;6.830;2023-04-24T21:51:00;7.90;99.90
23755;DHT22;12057;52.042;6.830;2023-04-24T21:56:00;7.80;99.90
23755;DHT22;12057;52.042;6.830;2023-04-24T22:01:01;7.90;99.90
23755;DHT22;12057;52.042;6.830;2023-04-24T22:06:02;8.00;99.90
23755;DHT22;12057;52.042;6.830;2023-04-24T22:11:03;8.00;99.90
23755;DHT22;12057;52.042;6.830;2023-04-24T22:16:04;8.00;99.90
23755;DHT22;12057;52.042;6.830;2023-04-24T22:21:05;8.00;99.90
23755;DHT22;12057;52.042;6.830;2023-04-24T22:26:06;8.00;99.90
23755;DHT22;12057;52.042;6.830;2023-04-24T22:31:07;8.00;99.90
23755;DHT22;12057;52.042;6.830;2023-04-24T22:36:09;8.00;99.90
23755;DHT22;12057;52.042;6.830;2023-04-24T22:41:10;8.00;99.90
23755;DHT22;12057;52.042;6.830;2023-04-24T22:46:10;7.90;99.90
23755;DHT22;12057;52.042;6.830;2023-04-24T22:51:11;7.90;99.90
23755;DHT22;12057;52.042;6.830;2023-04-24T22:56:12;7.90;99.90
23755;DHT22;12057;52.042;6.830;2023-04-24T23:01:13;8.00;99.90
23755;DHT22;12057;52.042;6.830;2023-04-24T23:06:13;7.90;99.90
23755;DHT22;12057;52.042;6.830;2023-04-24T23:11:14;7.90;99.90
23755;DHT22;12057;52.042;6.830;2023-04-24T23:16:15;7.90;99.90
23755;DHT22;12057;52.042;6.830;2023-04-24T23:21:16;7.90;99.90
23755;DHT22;12057;52.042;6.830;2023-04-24T23:26:17;7.80;99.90
23755;DHT22;12057;52.042;6.830;2023-04-24T23:31:18;7.80;99.90
23755;DHT22;12057;52.042;6.830;2023-04-24T23:36:18;7.80;99.90
23755;DHT22;12057;52.042;6.830;2023-04-24T23:41:19;7.80;99.90
23755;DHT22;12057;52.042;6.830;2023-04-24T23:46:20;7.80;99.90
23755;DHT22;12057;52.042;6.830;2023-04-24T23:51:22;7.80;99.90
23755;DHT22;12057;52.042;6.830;2023-04-24T23:56:23;7.80;99.90
